WetterOnline ( https://www.wetteronline.de )

Wetter aktuell Heinsdorfergrund

Aktuelles Wetter: Gera/Leumnitz (311m)

6-stündlich | Neueste Meldungen
Ortszeit Temperatur Wetter
Di, 24.11. 1:00 -0.1° C fast wolkenlos
Mo, 23.11. 19:00 2.6° C fast wolkenlos
Mo, 23.11. 13:00 7.2° C leicht bewölkt
Mo, 23.11. 7:00 5.3° C Sprühregen
Mo, 23.11. 1:00 4.8° C bewölkt
So, 22.11. 19:00 5.7° C wolkig
So, 22.11. 13:00 7.5° C leicht bewölkt
So, 22.11. 7:00 3.2° C bedeckt
Ortszeit Temperatur Wetter
Di, 24.11. 4:00 0.7° C wolkenlos
Di, 24.11. 3:50 0.7° C wolkenlos
Di, 24.11. 3:40 1.2° C wolkenlos
Di, 24.11. 3:30 1.1° C leicht bewölkt
Di, 24.11. 3:20 1.1° C leicht bewölkt
Di, 24.11. 3:10 1.3° C wolkig
Di, 24.11. 3:00 1.5° C bedeckt
Di, 24.11. 2:30 0.6° C bedeckt
Di, 24.11. 2:00 0.3° C wolkig
Di, 24.11. 1:30 0.4° C Nebel
Di, 24.11. 1:00 -0.1° C fast wolkenlos
Ortszeit Relative Feuchte Sichtweite
Di, 24.11. 1:00 94% 19 km
Mo, 23.11. 19:00 86% 40 km
Mo, 23.11. 13:00 71% 40 km
Mo, 23.11. 7:00 98% 18 km
Mo, 23.11. 1:00 92% 17 km
So, 22.11. 19:00 89% 28 km
So, 22.11. 13:00 76% 55 km
So, 22.11. 7:00 74% 35 km
Ortszeit Relative Feuchte Sichtweite
Di, 24.11. 4:00 97% 5.0 km
Di, 24.11. 3:50 97% -
Di, 24.11. 3:40 96% -
Di, 24.11. 3:30 96% 6 km
Di, 24.11. 3:20 96% -
Di, 24.11. 3:10 96% -
Di, 24.11. 3:00 96% 7 km
Di, 24.11. 2:30 98% 6 km
Di, 24.11. 2:00 100% 7 km
Di, 24.11. 1:30 99% 0.3 km
Di, 24.11. 1:00 94% 19 km
Ortszeit Niederschlagsmenge Niederschlagsart
Di, 24.11. 1:00 0.0 l/m2 in 6 Std. -
Mo, 23.11. 19:00 0.1 l/m2 in 12 Std. -
Mo, 23.11. 13:00 0.1 l/m2 in 6 Std. Regen
Mo, 23.11. 7:00 0.2 l/m2 in 12 Std. Regen
Mo, 23.11. 1:00 0.1 l/m2 in 6 Std. Sprühregen
So, 22.11. 19:00 0.0 l/m2 in 12 Std. -
So, 22.11. 13:00 0.0 l/m2 in 6 Std. -
So, 22.11. 7:00 0.0 l/m2 in 12 Std. -
Ortszeit Niederschlagsmenge Niederschlagsart
Di, 24.11. 4:00 0.0 l/m2 in 1 Std. -
Di, 24.11. 3:50 keine Meldung -
Di, 24.11. 3:40 keine Meldung -
Di, 24.11. 3:30 0.0 l/m2 in 1 Std. -
Di, 24.11. 3:20 keine Meldung -
Di, 24.11. 3:10 keine Meldung -
Di, 24.11. 3:00 0.0 l/m2 in 1 Std. -
Di, 24.11. 2:30 0.0 l/m2 in 1 Std. -
Di, 24.11. 2:00 0.0 l/m2 in 1 Std. -
Di, 24.11. 1:30 0.0 l/m2 in 1 Std. -
Di, 24.11. 1:00 0.0 l/m2 in 1 Std. -
Ortszeit Stärke Spitze Richtung
km/h Bft. km/h Grad Sektor
Di, 24.11. 1:00 19 3 26 180° S
Mo, 23.11. 19:00 11 2 36 210° SW
Mo, 23.11. 13:00 24 4 39 290° W
Mo, 23.11. 7:00 13 3 20 250° W
Mo, 23.11. 1:00 13 3 26 200° S
So, 22.11. 19:00 18 3 29 220° SW
So, 22.11. 13:00 15 3 43 230° SW
So, 22.11. 7:00 28 4 43 210° SW
Ortszeit Stärke Spitze Richtung
km/h Bft. km/h Grad Sektor
Di, 24.11. 4:00 14 3 22 190° S
Di, 24.11. 3:50 14 3 - 190° S
Di, 24.11. 3:40 17 3 - 190° S
Di, 24.11. 3:30 14 3 22 190° S
Di, 24.11. 3:20 14 3 - 190° S
Di, 24.11. 3:10 15 3 - 200° S
Di, 24.11. 3:00 17 3 26 200° S
Di, 24.11. 2:30 15 3 26 180° S
Di, 24.11. 2:00 17 3 24 180° S
Di, 24.11. 1:30 19 3 24 200° S
Di, 24.11. 1:00 19 3 26 180° S
Ortszeit Untergrenze Bedeckung Gattung
total tief tief mittel hoch
Di, 24.11. 1:00 30 m 0/8 0/8 - - -
Mo, 23.11. 19:00 7500 m 1/8 0/8 - - -
Mo, 23.11. 13:00 660 m 3/8 3/8 - - -
Mo, 23.11. 7:00 60 m 7/8 7/8 - - -
Mo, 23.11. 1:00 690 m 7/8 7/8 - - -
So, 22.11. 19:00 480 m 6/8 5/8 - - -
So, 22.11. 13:00 570 m 3/8 3/8 - - -
So, 22.11. 7:00 810 m 8/8 8/8 - - -
Ortszeit Bedeckungsgrad in Achtel und Wolkenuntergrenze
Di, 24.11. 4:00 keine Wolken
Di, 24.11. 3:50 keine Wolken
Di, 24.11. 3:40 keine Wolken
Di, 24.11. 3:30 3(120m)
Di, 24.11. 3:20 3(120m)
Di, 24.11. 3:10 5(120m)
Di, 24.11. 3:00 8(120m)
Di, 24.11. 2:30 8(90m)
Di, 24.11. 2:00 6(90m)
Di, 24.11. 1:30 7(<30m)
Di, 24.11. 1:00 2(30m)
Ortszeit Luftdruck NN (hPa) Tendenz (hPa in 3 Std.)
Di, 24.11. 1:00 1031 - 0,5
Mo, 23.11. 19:00 1031 + 0,8
Mo, 23.11. 13:00 1028 + 0,5
Mo, 23.11. 7:00 1026 + 0,7
Mo, 23.11. 1:00 1026 - 0,8
So, 22.11. 19:00 1027 + 0,7
So, 22.11. 13:00 1026 - 0,5
So, 22.11. 7:00 1027 - 0,7
Ortszeit Luftdruck NN (hPa) Tendenz (hPa in 3 Std.)
Di, 24.11. 4:00 1030 - 1,5
Di, 24.11. 3:50 1030 keine Meldung
Di, 24.11. 3:40 1030 keine Meldung
Di, 24.11. 3:30 1030 - 1,5
Di, 24.11. 3:20 1030 keine Meldung
Di, 24.11. 3:10 1030 keine Meldung
Di, 24.11. 3:00 1030 - 1,3
Di, 24.11. 2:30 1031 - 0,8
Di, 24.11. 2:00 1031 - 0,7
Di, 24.11. 1:30 1031 - 0,7
Di, 24.11. 1:00 1031 - 0,5
Ortszeit Schneehöhe (cm)
Di, 24.11. 1:00 0
Mo, 23.11. 19:00 0
Mo, 23.11. 13:00 0
Mo, 23.11. 7:00 0
Mo, 23.11. 1:00 0
So, 22.11. 19:00 0
So, 22.11. 13:00 0
So, 22.11. 7:00 0
Ortszeit Schneehöhe (cm)
Di, 24.11. 4:00 0
Di, 24.11. 3:50 0
Di, 24.11. 3:40 0
Di, 24.11. 3:30 0
Di, 24.11. 3:20 0
Di, 24.11. 3:10 0
Di, 24.11. 3:00 0
Di, 24.11. 2:30 0
Di, 24.11. 2:00 0
Di, 24.11. 1:30 0
Di, 24.11. 1:00 0
Link zu dieser Seite / Seite empfehlen

Das Wetter in ...